sensor_id;sensor_type;location;lat;lon;timestamp;pressure;altitude;pressure_sealevel;temperature;humidity
6144;BME280;3103;49.492;8.474;2023-10-09T00:02:09;101114.22;;;17.52;76.21
6144;BME280;3103;49.492;8.474;2023-10-09T00:04:38;101110.69;;;17.57;76.16
6144;BME280;3103;49.492;8.474;2023-10-09T00:07:08;101108.78;;;17.52;76.09
6144;BME280;3103;49.492;8.474;2023-10-09T00:09:37;101097.91;;;17.32;76.07
6144;BME280;3103;49.492;8.474;2023-10-09T00:12:22;101092.16;;;17.18;76.20
6144;BME280;3103;49.492;8.474;2023-10-09T00:14:51;101083.38;;;16.90;77.17
6144;BME280;3103;49.492;8.474;2023-10-09T00:17:34;101086.38;;;16.94;77.07
6144;BME280;3103;49.492;8.474;2023-10-09T00:20:01;101084.38;;;16.74;78.38
6144;BME280;3103;49.492;8.474;2023-10-09T00:22:35;101084.47;;;16.95;77.70
6144;BME280;3103;49.492;8.474;2023-10-09T00:25:08;101089.91;;;17.00;77.30
6144;BME280;3103;49.492;8.474;2023-10-09T00:27:42;101090.72;;;16.90;76.90
6144;BME280;3103;49.492;8.474;2023-10-09T00:30:11;101093.72;;;16.99;76.92
6144;BME280;3103;49.492;8.474;2023-10-09T00:32:42;101086.66;;;17.03;76.69
6144;BME280;3103;49.492;8.474;2023-10-09T00:35:18;101079.13;;;17.25;75.69
6144;BME280;3103;49.492;8.474;2023-10-09T00:38:04;101076.69;;;17.18;75.66
6144;BME280;3103;49.492;8.474;2023-10-09T00:40:47;101066.88;;;17.12;75.18
6144;BME280;3103;49.492;8.474;2023-10-09T00:43:23;101066.31;;;17.05;75.37
6144;BME280;3103;49.492;8.474;2023-10-09T00:45:58;101075.53;;;16.99;75.47
6144;BME280;3103;49.492;8.474;2023-10-09T00:48:36;101071.72;;;16.90;76.19
6144;BME280;3103;49.492;8.474;2023-10-09T00:51:16;101067.91;;;16.96;75.77
6144;BME280;3103;49.492;8.474;2023-10-09T00:53:45;101060.34;;;17.08;75.72
6144;BME280;3103;49.492;8.474;2023-10-09T00:56:22;101059.31;;;17.19;74.93
6144;BME280;3103;49.492;8.474;2023-10-09T00:58:53;101055.19;;;17.12;75.07
6144;BME280;3103;49.492;8.474;2023-10-09T01:01:27;101055.16;;;17.02;75.54
6144;BME280;3103;49.492;8.474;2023-10-09T01:04:07;101050.59;;;17.12;75.30
6144;BME280;3103;49.492;8.474;2023-10-09T01:06:38;101052.75;;;17.10;75.56
6144;BME280;3103;49.492;8.474;2023-10-09T01:09:13;101053.56;;;17.11;75.79
6144;BME280;3103;49.492;8.474;2023-10-09T01:11:41;101045.16;;;17.12;75.77
6144;BME280;3103;49.492;8.474;2023-10-09T01:14:26;101053.03;;;17.04;75.92
6144;BME280;3103;49.492;8.474;2023-10-09T01:16:54;101041.34;;;17.13;75.27
6144;BME280;3103;49.492;8.474;2023-10-09T01:19:21;101043.56;;;17.27;74.56
6144;BME280;3103;49.492;8.474;2023-10-09T01:21:51;101042.97;;;17.09;74.89
6144;BME280;3103;49.492;8.474;2023-10-09T01:24:19;101042.69;;;17.01;75.08
6144;BME280;3103;49.492;8.474;2023-10-09T01:26:47;101033.19;;;16.98;75.06
6144;BME280;3103;49.492;8.474;2023-10-09T01:29:17;101052.53;;;17.22;74.22
6144;BME280;3103;49.492;8.474;2023-10-09T01:31:54;101035.38;;;17.11;74.69
6144;BME280;3103;49.492;8.474;2023-10-09T01:34:28;101027.97;;;16.86;75.30
6144;BME280;3103;49.492;8.474;2023-10-09T01:37:06;101027.44;;;16.79;75.88
6144;BME280;3103;49.492;8.474;2023-10-09T01:39:39;101033.41;;;16.76;75.88
6144;BME280;3103;49.492;8.474;2023-10-09T01:42:10;101029.94;;;17.16;74.85
6144;BME280;3103;49.492;8.474;2023-10-09T01:44:37;101019.38;;;17.15;73.90
6144;BME280;3103;49.492;8.474;2023-10-09T01:47:10;101026.19;;;17.23;73.93
6144;BME280;3103;49.492;8.474;2023-10-09T01:49:40;101025.88;;;17.09;74.87
6144;BME280;3103;49.492;8.474;2023-10-09T01:52:10;101021.47;;;16.87;75.29
6144;BME280;3103;49.492;8.474;2023-10-09T01:54:45;101027.44;;;16.84;74.79
6144;BME280;3103;49.492;8.474;2023-10-09T01:57:19;101006.59;;;17.05;74.77
6144;BME280;3103;49.492;8.474;2023-10-09T01:59:51;101012.00;;;17.00;74.23
6144;BME280;3103;49.492;8.474;2023-10-09T02:02:21;101015.31;;;17.17;73.54
6144;BME280;3103;49.492;8.474;2023-10-09T02:05:03;100996.41;;;16.65;75.29
6144;BME280;3103;49.492;8.474;2023-10-09T02:07:39;101005.44;;;16.76;75.32
6144;BME280;3103;49.492;8.474;2023-10-09T02:10:20;101002.53;;;16.40;76.93
6144;BME280;3103;49.492;8.474;2023-10-09T02:13:04;100998.53;;;16.48;76.66
6144;BME280;3103;49.492;8.474;2023-10-09T02:15:45;101004.63;;;16.80;75.12
6144;BME280;3103;49.492;8.474;2023-10-09T02:18:20;100995.31;;;16.61;75.73
6144;BME280;3103;49.492;8.474;2023-10-09T02:23:28;101006.34;;;16.44;76.49
6144;BME280;3103;49.492;8.474;2023-10-09T02:26:18;101008.63;;;16.62;76.13
6144;BME280;3103;49.492;8.474;2023-10-09T02:28:57;101009.25;;;16.85;75.22
6144;BME280;3103;49.492;8.474;2023-10-09T02:31:31;101017.69;;;16.99;74.04
6144;BME280;3103;49.492;8.474;2023-10-09T02:34:08;101017.63;;;16.73;74.92
6144;BME280;3103;49.492;8.474;2023-10-09T02:36:34;101011.13;;;16.74;75.25
6144;BME280;3103;49.492;8.474;2023-10-09T02:39:05;101012.41;;;16.61;75.27
6144;BME280;3103;49.492;8.474;2023-10-09T02:41:33;101006.75;;;16.68;75.61
6144;BME280;3103;49.492;8.474;2023-10-09T02:44:02;101011.44;;;16.88;75.37
6144;BME280;3103;49.492;8.474;2023-10-09T02:46:38;101002.47;;;16.82;75.71
6144;BME280;3103;49.492;8.474;2023-10-09T02:49:07;101013.19;;;16.52;76.31
6144;BME280;3103;49.492;8.474;2023-10-09T02:51:36;101014.00;;;16.57;76.84
6144;BME280;3103;49.492;8.474;2023-10-09T02:54:09;101009.25;;;16.85;75.77
6144;BME280;3103;49.492;8.474;2023-10-09T02:56:47;101004.06;;;16.73;75.46
6144;BME280;3103;49.492;8.474;2023-10-09T02:59:21;101012.09;;;16.48;76.28
6144;BME280;3103;49.492;8.474;2023-10-09T03:01:51;101022.13;;;16.47;76.92
6144;BME280;3103;49.492;8.474;2023-10-09T03:04:19;101019.97;;;16.59;76.18
6144;BME280;3103;49.492;8.474;2023-10-09T03:06:46;101021.69;;;16.71;75.89
6144;BME280;3103;49.492;8.474;2023-10-09T03:09:24;101014.38;;;16.71;75.99
6144;BME280;3103;49.492;8.474;2023-10-09T03:12:00;101019.53;;;16.73;75.51
6144;BME280;3103;49.492;8.474;2023-10-09T03:14:35;101015.44;;;16.70;75.50
6144;BME280;3103;49.492;8.474;2023-10-09T03:17:05;101010.56;;;16.67;75.70
6144;BME280;3103;49.492;8.474;2023-10-09T03:19:37;101007.56;;;16.69;75.58
6144;BME280;3103;49.492;8.474;2023-10-09T03:22:07;101002.63;;;16.60;75.68
6144;BME280;3103;49.492;8.474;2023-10-09T03:24:41;101007.91;;;16.82;75.01
6144;BME280;3103;49.492;8.474;2023-10-09T03:27:17;101002.66;;;16.66;74.70
6144;BME280;3103;49.492;8.474;2023-10-09T03:29:45;101008.31;;;16.54;75.68
6144;BME280;3103;49.492;8.474;2023-10-09T03:32:16;101002.72;;;16.76;74.82
6144;BME280;3103;49.492;8.474;2023-10-09T03:34:43;100994.78;;;16.64;75.20
6144;BME280;3103;49.492;8.474;2023-10-09T03:37:11;100996.09;;;16.51;75.77
6144;BME280;3103;49.492;8.474;2023-10-09T03:39:48;101001.44;;;16.36;75.83
6144;BME280;3103;49.492;8.474;2023-10-09T03:42:18;101001.44;;;16.36;76.71
6144;BME280;3103;49.492;8.474;2023-10-09T03:44:49;100996.00;;;16.31;77.02
6144;BME280;3103;49.492;8.474;2023-10-09T03:47:21;100993.84;;;16.33;77.15
6144;BME280;3103;49.492;8.474;2023-10-09T03:49:51;101000.44;;;16.47;76.59
6144;BME280;3103;49.492;8.474;2023-10-09T03:52:20;100995.03;;;16.57;75.39
6144;BME280;3103;49.492;8.474;2023-10-09T03:54:47;100996.78;;;16.84;74.17
6144;BME280;3103;49.492;8.474;2023-10-09T03:57:16;100998.53;;;16.58;75.37
6144;BME280;3103;49.492;8.474;2023-10-09T03:59:46;100992.13;;;16.17;76.81
6144;BME280;3103;49.492;8.474;2023-10-09T04:02:18;100989.06;;;16.03;77.82
6144;BME280;3103;49.492;8.474;2023-10-09T04:04:45;100993.94;;;16.01;77.86
6144;BME280;3103;49.492;8.474;2023-10-09T04:07:14;100994.53;;;16.08;78.32
6144;BME280;3103;49.492;8.474;2023-10-09T04:09:44;100981.97;;;15.92;78.27
6144;BME280;3103;49.492;8.474;2023-10-09T04:12:36;100979.91;;;16.14;77.73
6144;BME280;3103;49.492;8.474;2023-10-09T04:15:06;100974.94;;;16.01;77.65
6144;BME280;3103;49.492;8.474;2023-10-09T04:17:41;100972.13;;;15.81;78.58
6144;BME280;3103;49.492;8.474;2023-10-09T04:20:10;100982.31;;;16.06;78.24
6144;BME280;3103;49.492;8.474;2023-10-09T04:22:46;100963.66;;;16.14;77.63
6144;BME280;3103;49.492;8.474;2023-10-09T04:25:32;100966.69;;;16.23;77.49
6144;BME280;3103;49.492;8.474;2023-10-09T04:28:10;100959.28;;;16.08;77.70
6144;BME280;3103;49.492;8.474;2023-10-09T04:30:46;100966.34;;;16.09;77.74
6144;BME280;3103;49.492;8.474;2023-10-09T04:33:14;100970.16;;;16.18;77.56
6144;BME280;3103;49.492;8.474;2023-10-09T04:36:07;100964.53;;;16.30;76.92
6144;BME280;3103;49.492;8.474;2023-10-09T04:38:53;100968.88;;;16.31;77.33
6144;BME280;3103;49.492;8.474;2023-10-09T04:41:30;100975.97;;;16.37;77.17
6144;BME280;3103;49.492;8.474;2023-10-09T04:44:21;100979.50;;;16.38;77.26
6144;BME280;3103;49.492;8.474;2023-10-09T04:47:02;100979.50;;;16.43;76.58
6144;BME280;3103;49.492;8.474;2023-10-09T04:49:40;100985.19;;;16.41;76.46
6144;BME280;3103;49.492;8.474;2023-10-09T04:52:35;100986.75;;;16.22;76.99
6144;BME280;3103;49.492;8.474;2023-10-09T04:55:02;100977.25;;;16.19;77.77
6144;BME280;3103;49.492;8.474;2023-10-09T04:57:40;100983.44;;;16.15;77.67
6144;BME280;3103;49.492;8.474;2023-10-09T05:00:18;100979.03;;;16.03;78.15
6144;BME280;3103;49.492;8.474;2023-10-09T05:02:56;100978.00;;;16.10;78.32
6144;BME280;3103;49.492;8.474;2023-10-09T05:05:28;100980.97;;;16.08;78.04
6144;BME280;3103;49.492;8.474;2023-10-09T05:08:11;100991.84;;;16.18;77.65
6144;BME280;3103;49.492;8.474;2023-10-09T05:13:33;101005.13;;;16.15;77.55
6144;BME280;3103;49.492;8.474;2023-10-09T05:16:16;101007.56;;;16.16;77.52
6144;BME280;3103;49.492;8.474;2023-10-09T05:18:55;101010.28;;;16.16;77.73
6144;BME280;3103;49.492;8.474;2023-10-09T05:21:36;101022.53;;;16.24;77.49
6144;BME280;3103;49.492;8.474;2023-10-09T05:24:04;101015.13;;;16.09;77.82
6144;BME280;3103;49.492;8.474;2023-10-09T05:31:46;101009.34;;;15.95;77.99
6144;BME280;3103;49.492;8.474;2023-10-09T05:34:24;101004.66;;;15.86;78.54
6144;BME280;3103;49.492;8.474;2023-10-09T05:37:04;100997.16;;;15.98;78.73
6144;BME280;3103;49.492;8.474;2023-10-09T05:39:49;100999.78;;;15.83;78.63
6144;BME280;3103;49.492;8.474;2023-10-09T05:42:36;100999.84;;;15.93;79.02
6144;BME280;3103;49.492;8.474;2023-10-09T05:45:04;101003.38;;;15.93;78.92
6144;BME280;3103;49.492;8.474;2023-10-09T05:47:52;101009.09;;;16.02;78.66
6144;BME280;3103;49.492;8.474;2023-10-09T05:50:38;101005.78;;;15.90;79.35
6144;BME280;3103;49.492;8.474;2023-10-09T05:53:25;101014.25;;;15.98;79.21
6144;BME280;3103;49.492;8.474;2023-10-09T05:56:10;101012.38;;;16.04;78.86
6144;BME280;3103;49.492;8.474;2023-10-09T05:58:56;101009.63;;;15.94;79.11
6144;BME280;3103;49.492;8.474;2023-10-09T06:01:41;101004.75;;;15.96;78.82
6144;BME280;3103;49.492;8.474;2023-10-09T06:04:18;101004.72;;;15.91;79.36
6144;BME280;3103;49.492;8.474;2023-10-09T06:06:47;101004.75;;;16.01;79.36
6144;BME280;3103;49.492;8.474;2023-10-09T06:09:23;101001.78;;;16.02;79.09
6144;BME280;3103;49.492;8.474;2023-10-09T06:12:16;101001.22;;;15.95;79.42
6144;BME280;3103;49.492;8.474;2023-10-09T06:14:59;100997.81;;;16.15;79.05
6144;BME280;3103;49.492;8.474;2023-10-09T06:17:46;101001.84;;;16.08;78.86
6144;BME280;3103;49.492;8.474;2023-10-09T06:20:19;101004.22;;;16.04;78.85
6144;BME280;3103;49.492;8.474;2023-10-09T06:23:04;101017.03;;;16.09;79.16
6144;BME280;3103;49.492;8.474;2023-10-09T06:25:54;101016.56;;;16.22;79.20
6144;BME280;3103;49.492;8.474;2023-10-09T06:28:32;101019.03;;;16.28;78.77
6144;BME280;3103;49.492;8.474;2023-10-09T06:31:02;101027.94;;;16.19;79.18
6144;BME280;3103;49.492;8.474;2023-10-09T06:33:48;101034.47;;;16.28;78.63
6144;BME280;3103;49.492;8.474;2023-10-09T06:36:34;101028.69;;;16.14;79.17
6144;BME280;3103;49.492;8.474;2023-10-09T06:39:02;101026.88;;;16.30;78.88
6144;BME280;3103;49.492;8.474;2023-10-09T06:41:55;101027.41;;;16.22;79.06
6144;BME280;3103;49.492;8.474;2023-10-09T06:44:37;101030.69;;;16.29;78.31
6144;BME280;3103;49.492;8.474;2023-10-09T06:47:19;101025.25;;;16.29;78.56
6144;BME280;3103;49.492;8.474;2023-10-09T06:49:50;101025.16;;;16.09;79.64
6144;BME280;3103;49.492;8.474;2023-10-09T06:52:53;101016.75;;;16.10;80.34
6144;BME280;3103;49.492;8.474;2023-10-09T06:55:24;101023.63;;;16.28;79.57
6144;BME280;3103;49.492;8.474;2023-10-09T06:58:21;101026.38;;;16.33;79.06
6144;BME280;3103;49.492;8.474;2023-10-09T07:00:55;101023.75;;;16.48;78.10
6144;BME280;3103;49.492;8.474;2023-10-09T07:03:29;101029.69;;;16.45;78.38
6144;BME280;3103;49.492;8.474;2023-10-09T07:06:08;101033.47;;;16.44;78.05
6144;BME280;3103;49.492;8.474;2023-10-09T07:08:56;101024.03;;;16.52;77.61
6144;BME280;3103;49.492;8.474;2023-10-09T07:11:44;101026.47;;;16.53;77.51
6144;BME280;3103;49.492;8.474;2023-10-09T07:17:07;101027.22;;;16.44;77.46
6144;BME280;3103;49.492;8.474;2023-10-09T07:19:53;101042.47;;;16.50;78.26
6144;BME280;3103;49.492;8.474;2023-10-09T07:22:22;101045.56;;;16.69;77.22
6144;BME280;3103;49.492;8.474;2023-10-09T07:24:53;101054.53;;;16.74;76.58
6144;BME280;3103;49.492;8.474;2023-10-09T07:27:41;101054.84;;;16.78;76.36
6144;BME280;3103;49.492;8.474;2023-10-09T07:30:18;101048.38;;;16.94;75.43
6144;BME280;3103;49.492;8.474;2023-10-09T07:33:08;101061.91;;;16.84;75.78
6144;BME280;3103;49.492;8.474;2023-10-09T07:35:47;101059.63;;;16.66;76.60
6144;BME280;3103;49.492;8.474;2023-10-09T07:38:23;101052.31;;;16.66;76.29
6144;BME280;3103;49.492;8.474;2023-10-09T07:40:56;101061.63;;;16.85;75.79
6144;BME280;3103;49.492;8.474;2023-10-09T07:43:46;101050.31;;;17.04;74.92
6144;BME280;3103;49.492;8.474;2023-10-09T07:46:15;101061.44;;;17.07;74.74
6144;BME280;3103;49.492;8.474;2023-10-09T07:49:19;101042.47;;;17.17;74.15
6144;BME280;3103;49.492;8.474;2023-10-09T07:51:52;101045.72;;;17.19;74.07
6144;BME280;3103;49.492;8.474;2023-10-09T07:54:22;101047.31;;;17.10;74.52
6144;BME280;3103;49.492;8.474;2023-10-09T07:56:59;101044.09;;;17.18;74.22
6144;BME280;3103;49.492;8.474;2023-10-09T07:59:42;101048.44;;;17.25;73.77
6144;BME280;3103;49.492;8.474;2023-10-09T08:02:21;101049.50;;;17.08;74.64
6144;BME280;3103;49.492;8.474;2023-10-09T08:05:00;101046.03;;;17.33;73.70
6144;BME280;3103;49.492;8.474;2023-10-09T08:07:33;101052.84;;;17.51;72.71
6144;BME280;3103;49.492;8.474;2023-10-09T08:10:23;101056.31;;;17.21;73.39
6144;BME280;3103;49.492;8.474;2023-10-09T08:12:53;101045.47;;;17.26;73.56
6144;BME280;3103;49.492;8.474;2023-10-09T08:15:25;101057.09;;;17.16;73.59
6144;BME280;3103;49.492;8.474;2023-10-09T08:18:18;101058.75;;;17.23;73.61
6144;BME280;3103;49.492;8.474;2023-10-09T08:21:02;101060.69;;;17.42;72.52
6144;BME280;3103;49.492;8.474;2023-10-09T08:23:29;101066.69;;;17.55;71.71
6144;BME280;3103;49.492;8.474;2023-10-09T08:26:03;101058.25;;;17.51;71.95
6144;BME280;3103;49.492;8.474;2023-10-09T08:28:56;101050.13;;;17.46;72.64
6144;BME280;3103;49.492;8.474;2023-10-09T08:31:44;101057.72;;;17.54;72.37
6144;BME280;3103;49.492;8.474;2023-10-09T08:34:23;101058.53;;;17.49;72.03
6144;BME280;3103;49.492;8.474;2023-10-09T08:36:56;101058.25;;;17.51;72.05
6144;BME280;3103;49.492;8.474;2023-10-09T08:39:24;101053.91;;;17.55;71.85
6144;BME280;3103;49.492;8.474;2023-10-09T08:41:54;101054.75;;;17.66;72.37
6144;BME280;3103;49.492;8.474;2023-10-09T08:48:50;101070.28;;;17.75;72.10
6144;BME280;3103;49.492;8.474;2023-10-09T08:51:18;101080.06;;;17.92;71.39
6144;BME280;3103;49.492;8.474;2023-10-09T08:53:46;101088.72;;;17.84;71.69
6144;BME280;3103;49.492;8.474;2023-10-09T08:56:16;101092.25;;;17.99;71.03
6144;BME280;3103;49.492;8.474;2023-10-09T08:58:57;101094.97;;;17.99;71.22
6144;BME280;3103;49.492;8.474;2023-10-09T09:01:25;101085.75;;;17.95;71.39
6144;BME280;3103;49.492;8.474;2023-10-09T09:03:53;101083.84;;;18.06;71.25
6144;BME280;3103;49.492;8.474;2023-10-09T09:06:23;101074.06;;;18.05;71.45
6144;BME280;3103;49.492;8.474;2023-10-09T09:08:51;101076.75;;;18.10;71.52
6144;BME280;3103;49.492;8.474;2023-10-09T09:11:22;101083.31;;;18.04;72.31
6144;BME280;3103;49.492;8.474;2023-10-09T09:16:25;101087.91;;;18.19;71.70
6144;BME280;3103;49.492;8.474;2023-10-09T09:21:33;101077.84;;;18.14;71.95
6144;BME280;3103;49.492;8.474;2023-10-09T09:24:09;101075.66;;;18.21;72.02
6144;BME280;3103;49.492;8.474;2023-10-09T09:26:44;101071.31;;;18.20;71.97
6144;BME280;3103;49.492;8.474;2023-10-09T09:29:15;101071.03;;;18.27;71.91
6144;BME280;3103;49.492;8.474;2023-10-09T09:31:55;101051.69;;;18.28;72.04
6144;BME280;3103;49.492;8.474;2023-10-09T09:34:44;101052.22;;;18.46;71.06
6144;BME280;3103;49.492;8.474;2023-10-09T09:37:23;101053.84;;;18.42;71.51
6144;BME280;3103;49.492;8.474;2023-10-09T09:39:59;101054.34;;;18.54;70.89
6144;BME280;3103;49.492;8.474;2023-10-09T09:42:43;101052.69;;;18.58;70.91
6144;BME280;3103;49.492;8.474;2023-10-09T09:45:15;101059.00;;;18.63;70.87
6144;BME280;3103;49.492;8.474;2023-10-09T09:47:43;101075.53;;;18.77;70.58
6144;BME280;3103;49.492;8.474;2023-10-09T09:50:18;101072.50;;;18.84;70.67
6144;BME280;3103;49.492;8.474;2023-10-09T09:52:55;101084.78;;;18.86;70.13
6144;BME280;3103;49.492;8.474;2023-10-09T09:55:33;101084.50;;;18.83;70.38
6144;BME280;3103;49.492;8.474;2023-10-09T09:58:02;101077.41;;;18.82;70.57
6144;BME280;3103;49.492;8.474;2023-10-09T10:00:33;101075.22;;;18.84;70.37
6144;BME280;3103;49.492;8.474;2023-10-09T10:03:12;101085.63;;;18.77;71.07
6144;BME280;3103;49.492;8.474;2023-10-09T10:05:42;101089.44;;;18.76;70.87
6144;BME280;3103;49.492;8.474;2023-10-09T10:08:20;101095.16;;;18.74;70.74
6144;BME280;3103;49.492;8.474;2023-10-09T10:10:48;101084.78;;;18.81;70.48
6144;BME280;3103;49.492;8.474;2023-10-09T10:19:02;101078.81;;;18.74;71.31
6144;BME280;3103;49.492;8.474;2023-10-09T10:21:38;101085.06;;;18.80;71.01
6144;BME280;3103;49.492;8.474;2023-10-09T10:29:45;101108.19;;;18.87;70.06
6144;BME280;3103;49.492;8.474;2023-10-09T10:32:12;101117.09;;;19.03;69.54
6144;BME280;3103;49.492;8.474;2023-10-09T10:34:52;101114.94;;;18.95;70.49
6144;BME280;3103;49.492;8.474;2023-10-09T10:40:11;101113.47;;;19.18;71.01
6144;BME280;3103;49.492;8.474;2023-10-09T10:42:58;101103.06;;;19.25;70.00
6144;BME280;3103;49.492;8.474;2023-10-09T10:45:36;101111.78;;;19.32;69.51
6144;BME280;3103;49.492;8.474;2023-10-09T10:48:10;101111.25;;;19.30;69.70
6144;BME280;3103;49.492;8.474;2023-10-09T10:50:56;101109.56;;;19.34;69.27
6144;BME280;3103;49.492;8.474;2023-10-09T10:53:24;101096.44;;;19.41;69.20
6144;BME280;3103;49.492;8.474;2023-10-09T10:56:01;101101.06;;;19.46;68.33
6144;BME280;3103;49.492;8.474;2023-10-09T10:58:54;101111.91;;;19.51;68.58
6144;BME280;3103;49.492;8.474;2023-10-09T11:01:31;101104.00;;;19.60;66.82
6144;BME280;3103;49.492;8.474;2023-10-09T11:04:22;101102.53;;;19.72;66.84
6144;BME280;3103;49.492;8.474;2023-10-09T11:06:51;101094.59;;;19.76;66.18
6144;BME280;3103;49.492;8.474;2023-10-09T11:09:18;101088.16;;;19.62;66.20
6144;BME280;3103;49.492;8.474;2023-10-09T11:11:50;101068.44;;;19.75;66.53
6144;BME280;3103;49.492;8.474;2023-10-09T11:14:48;101051.66;;;19.92;65.70
6144;BME280;3103;49.492;8.474;2023-10-09T11:17:32;101044.66;;;20.09;65.20
6144;BME280;3103;49.492;8.474;2023-10-09T11:19:59;101030.44;;;20.12;64.77
6144;BME280;3103;49.492;8.474;2023-10-09T11:22:46;101028.28;;;20.09;65.17
6144;BME280;3103;49.492;8.474;2023-10-09T11:25:33;101018.03;;;20.01;65.67
6144;BME280;3103;49.492;8.474;2023-10-09T11:28:00;101030.22;;;20.09;64.41
6144;BME280;3103;49.492;8.474;2023-10-09T11:30:47;101013.09;;;20.03;64.29
6144;BME280;3103;49.492;8.474;2023-10-09T11:33:14;101016.75;;;20.17;64.36
6144;BME280;3103;49.492;8.474;2023-10-09T11:35:54;101017.88;;;20.16;64.73
6144;BME280;3103;49.492;8.474;2023-10-09T11:38:23;101016.25;;;20.15;64.98
6144;BME280;3103;49.492;8.474;2023-10-09T11:40:53;101027.97;;;20.16;65.08
6144;BME280;3103;49.492;8.474;2023-10-09T11:43:20;101026.50;;;20.24;64.99
6144;BME280;3103;49.492;8.474;2023-10-09T11:46:15;101017.41;;;20.33;63.94
6144;BME280;3103;49.492;8.474;2023-10-09T11:49:11;101032.16;;;20.32;64.04
6144;BME280;3103;49.492;8.474;2023-10-09T11:52:08;101025.91;;;20.27;64.29
6144;BME280;3103;49.492;8.474;2023-10-09T11:54:35;101008.69;;;20.31;64.12
6144;BME280;3103;49.492;8.474;2023-10-09T11:57:03;101018.16;;;20.39;63.76
6144;BME280;3103;49.492;8.474;2023-10-09T11:59:31;101017.34;;;20.38;63.98
6144;BME280;3103;49.492;8.474;2023-10-09T12:02:05;101015.41;;;20.44;63.73
6144;BME280;3103;49.492;8.474;2023-10-09T12:04:32;101008.03;;;20.44;64.00
6144;BME280;3103;49.492;8.474;2023-10-09T12:06:59;101006.63;;;20.47;63.76
6144;BME280;3103;49.492;8.474;2023-10-09T12:09:40;101004.53;;;20.63;62.88
6144;BME280;3103;49.492;8.474;2023-10-09T12:12:08;101014.00;;;20.70;62.05
6144;BME280;3103;49.492;8.474;2023-10-09T12:14:35;101018.75;;;20.84;61.16
6144;BME280;3103;49.492;8.474;2023-10-09T12:17:05;101008.63;;;20.84;60.46
6144;BME280;3103;49.492;8.474;2023-10-09T12:19:35;101007.13;;;20.92;58.38
6144;BME280;3103;49.492;8.474;2023-10-09T12:22:03;101002.94;;;20.99;58.11
6144;BME280;3103;49.492;8.474;2023-10-09T12:24:31;100998.28;;;21.00;58.69
6144;BME280;3103;49.492;8.474;2023-10-09T12:27:00;100987.78;;;21.07;57.13
6144;BME280;3103;49.492;8.474;2023-10-09T12:29:27;100985.50;;;21.14;55.73
6144;BME280;3103;49.492;8.474;2023-10-09T12:31:59;100980.47;;;21.21;55.08
6144;BME280;3103;49.492;8.474;2023-10-09T12:34:26;100985.41;;;21.38;54.47
6144;BME280;3103;49.492;8.474;2023-10-09T12:36:54;100981.66;;;21.34;55.07
6144;BME280;3103;49.492;8.474;2023-10-09T12:39:21;100981.56;;;21.39;54.69
6144;BME280;3103;49.492;8.474;2023-10-09T12:41:49;100986.03;;;21.35;55.27
6144;BME280;3103;49.492;8.474;2023-10-09T12:44:21;100982.81;;;21.47;54.64
6144;BME280;3103;49.492;8.474;2023-10-09T12:46:48;100977.69;;;21.59;52.59
6144;BME280;3103;49.492;8.474;2023-10-09T12:49:22;100968.09;;;21.61;51.84
6144;BME280;3103;49.492;8.474;2023-10-09T12:51:55;100979.03;;;21.61;50.31
6144;BME280;3103;49.492;8.474;2023-10-09T12:54:27;100966.88;;;21.68;51.64
6144;BME280;3103;49.492;8.474;2023-10-09T12:56:55;100949.16;;;21.79;52.43
6144;BME280;3103;49.492;8.474;2023-10-09T12:59:23;100940.16;;;21.78;52.82
6144;BME280;3103;49.492;8.474;2023-10-09T13:01:51;100951.31;;;21.96;53.17
6144;BME280;3103;49.492;8.474;2023-10-09T13:04:25;100950.00;;;21.93;53.94
6144;BME280;3103;49.492;8.474;2023-10-09T13:06:58;100952.84;;;22.02;52.98
6144;BME280;3103;49.492;8.474;2023-10-09T13:09:30;100949.31;;;22.01;52.50
6144;BME280;3103;49.492;8.474;2023-10-09T13:12:02;100940.28;;;22.01;50.83
6144;BME280;3103;49.492;8.474;2023-10-09T13:14:32;100937.56;;;22.01;50.46
6144;BME280;3103;49.492;8.474;2023-10-09T13:17:02;100928.25;;;22.15;49.70
6144;BME280;3103;49.492;8.474;2023-10-09T13:19:37;100933.09;;;22.32;47.62
6144;BME280;3103;49.492;8.474;2023-10-09T13:22:04;100933.09;;;22.46;47.83
6144;BME280;3103;49.492;8.474;2023-10-09T13:24:39;100929.31;;;22.56;46.86
6144;BME280;3103;49.492;8.474;2023-10-09T13:27:06;100928.38;;;22.60;45.82
6144;BME280;3103;49.492;8.474;2023-10-09T13:29:37;100921.28;;;22.59;46.26
6144;BME280;3103;49.492;8.474;2023-10-09T13:32:07;100910.03;;;22.61;45.82
6144;BME280;3103;49.492;8.474;2023-10-09T13:34:41;100904.56;;;22.61;46.62
6144;BME280;3103;49.492;8.474;2023-10-09T13:37:11;100906.16;;;22.62;47.01
6144;BME280;3103;49.492;8.474;2023-10-09T13:39:41;100903.03;;;22.68;46.64
6144;BME280;3103;49.492;8.474;2023-10-09T13:42:19;100898.41;;;22.77;45.09
6144;BME280;3103;49.492;8.474;2023-10-09T13:44:52;100905.44;;;22.84;44.36
6144;BME280;3103;49.492;8.474;2023-10-09T13:47:22;100907.94;;;22.80;46.08
6144;BME280;3103;49.492;8.474;2023-10-09T13:49:55;100900.50;;;22.94;44.34
6144;BME280;3103;49.492;8.474;2023-10-09T13:52:25;100900.09;;;23.01;44.53
6144;BME280;3103;49.492;8.474;2023-10-09T13:54:53;100903.88;;;23.14;43.23
6144;BME280;3103;49.492;8.474;2023-10-09T13:57:21;100894.41;;;23.20;43.64
6144;BME280;3103;49.492;8.474;2023-10-09T13:59:57;100908.66;;;23.08;44.66
6144;BME280;3103;49.492;8.474;2023-10-09T14:02:31;100898.81;;;23.07;44.87
6144;BME280;3103;49.492;8.474;2023-10-09T14:04:59;100902.81;;;23.01;45.63
6144;BME280;3103;49.492;8.474;2023-10-09T14:07:30;100909.59;;;23.03;46.46
6144;BME280;3103;49.492;8.474;2023-10-09T14:09:58;100918.94;;;23.02;45.86
6144;BME280;3103;49.492;8.474;2023-10-09T14:12:34;100910.66;;;23.16;44.44
6144;BME280;3103;49.492;8.474;2023-10-09T14:15:06;100910.97;;;23.15;44.99
6144;BME280;3103;49.492;8.474;2023-10-09T14:17:37;100906.13;;;23.12;44.75
6144;BME280;3103;49.492;8.474;2023-10-09T14:20:09;100912.97;;;23.00;45.93
6144;BME280;3103;49.492;8.474;2023-10-09T14:22:55;100912.47;;;22.98;45.34
6144;BME280;3103;49.492;8.474;2023-10-09T14:25:21;100901.56;;;23.07;45.27
6144;BME280;3103;49.492;8.474;2023-10-09T14:27:49;100891.16;;;23.18;45.04
6144;BME280;3103;49.492;8.474;2023-10-09T14:30:19;100898.66;;;23.26;44.45